sensor_id;sensor_type;location;lat;lon;timestamp;P1;durP1;ratioP1;P2;durP2;ratioP2
5393;SDS011;2720;52.396;10.064;2023-03-14T00:00:59;8.37;;;1.57;;
5393;SDS011;2720;52.396;10.064;2023-03-14T00:03:33;5.23;;;1.10;;
5393;SDS011;2720;52.396;10.064;2023-03-14T00:06:03;3.30;;;1.43;;
5393;SDS011;2720;52.396;10.064;2023-03-14T00:08:30;2.03;;;1.40;;
5393;SDS011;2720;52.396;10.064;2023-03-14T00:10:57;3.93;;;1.20;;
5393;SDS011;2720;52.396;10.064;2023-03-14T00:13:29;4.50;;;1.43;;
5393;SDS011;2720;52.396;10.064;2023-03-14T00:16:01;7.70;;;1.80;;
5393;SDS011;2720;52.396;10.064;2023-03-14T00:18:28;3.70;;;1.60;;
5393;SDS011;2720;52.396;10.064;2023-03-14T00:20:57;5.63;;;0.97;;
5393;SDS011;2720;52.396;10.064;2023-03-14T00:23:25;5.50;;;1.63;;
5393;SDS011;2720;52.396;10.064;2023-03-14T00:25:53;2.20;;;1.70;;
5393;SDS011;2720;52.396;10.064;2023-03-14T00:28:24;2.33;;;1.13;;
5393;SDS011;2720;52.396;10.064;2023-03-14T00:30:51;1.77;;;1.30;;
5393;SDS011;2720;52.396;10.064;2023-03-14T00:33:18;3.13;;;1.60;;
5393;SDS011;2720;52.396;10.064;2023-03-14T00:35:51;5.90;;;1.47;;
5393;SDS011;2720;52.396;10.064;2023-03-14T00:38:19;3.33;;;1.40;;
5393;SDS011;2720;52.396;10.064;2023-03-14T00:40:48;1.50;;;1.40;;
5393;SDS011;2720;52.396;10.064;2023-03-14T00:43:14;6.80;;;1.40;;
5393;SDS011;2720;52.396;10.064;2023-03-14T00:45:42;4.40;;;1.97;;
5393;SDS011;2720;52.396;10.064;2023-03-14T00:48:09;2.60;;;1.53;;
5393;SDS011;2720;52.396;10.064;2023-03-14T00:50:35;2.87;;;1.30;;
5393;SDS011;2720;52.396;10.064;2023-03-14T00:53:02;8.43;;;1.57;;
5393;SDS011;2720;52.396;10.064;2023-03-14T00:55:29;1.80;;;1.40;;
5393;SDS011;2720;52.396;10.064;2023-03-14T00:57:58;3.17;;;1.77;;
5393;SDS011;2720;52.396;10.064;2023-03-14T01:00:25;1.73;;;1.10;;
5393;SDS011;2720;52.396;10.064;2023-03-14T01:02:52;4.60;;;1.37;;
5393;SDS011;2720;52.396;10.064;2023-03-14T01:05:18;3.70;;;1.10;;
5393;SDS011;2720;52.396;10.064;2023-03-14T01:07:47;4.60;;;1.80;;
5393;SDS011;2720;52.396;10.064;2023-03-14T01:10:14;3.13;;;1.70;;
5393;SDS011;2720;52.396;10.064;2023-03-14T01:12:41;4.73;;;1.70;;
5393;SDS011;2720;52.396;10.064;2023-03-14T01:15:10;1.53;;;1.10;;
5393;SDS011;2720;52.396;10.064;2023-03-14T01:17:37;3.50;;;0.97;;
5393;SDS011;2720;52.396;10.064;2023-03-14T01:20:05;2.90;;;1.40;;
5393;SDS011;2720;52.396;10.064;2023-03-14T01:22:34;4.93;;;1.20;;
5393;SDS011;2720;52.396;10.064;2023-03-14T01:25:01;7.20;;;1.53;;
5393;SDS011;2720;52.396;10.064;2023-03-14T01:27:28;2.53;;;1.00;;
5393;SDS011;2720;52.396;10.064;2023-03-14T01:29:55;3.33;;;1.30;;
5393;SDS011;2720;52.396;10.064;2023-03-14T01:32:23;2.60;;;1.37;;
5393;SDS011;2720;52.396;10.064;2023-03-14T01:34:50;5.50;;;1.07;;
5393;SDS011;2720;52.396;10.064;2023-03-14T01:37:17;4.87;;;1.20;;
5393;SDS011;2720;52.396;10.064;2023-03-14T01:39:46;4.00;;;1.10;;
5393;SDS011;2720;52.396;10.064;2023-03-14T01:42:13;1.33;;;1.10;;
5393;SDS011;2720;52.396;10.064;2023-03-14T01:44:47;1.27;;;0.80;;
5393;SDS011;2720;52.396;10.064;2023-03-14T01:47:15;9.93;;;1.33;;
5393;SDS011;2720;52.396;10.064;2023-03-14T01:49:44;3.03;;;1.17;;
5393;SDS011;2720;52.396;10.064;2023-03-14T01:52:13;2.10;;;1.40;;
5393;SDS011;2720;52.396;10.064;2023-03-14T01:54:46;4.87;;;1.20;;
5393;SDS011;2720;52.396;10.064;2023-03-14T01:57:17;4.60;;;0.93;;
5393;SDS011;2720;52.396;10.064;2023-03-14T01:59:48;5.40;;;1.13;;
5393;SDS011;2720;52.396;10.064;2023-03-14T02:02:18;4.23;;;1.20;;
5393;SDS011;2720;52.396;10.064;2023-03-14T02:04:47;5.73;;;1.40;;
5393;SDS011;2720;52.396;10.064;2023-03-14T02:07:16;3.80;;;1.37;;
5393;SDS011;2720;52.396;10.064;2023-03-14T02:09:46;3.63;;;1.00;;
5393;SDS011;2720;52.396;10.064;2023-03-14T02:12:15;1.07;;;1.00;;
5393;SDS011;2720;52.396;10.064;2023-03-14T02:14:43;2.00;;;1.03;;
5393;SDS011;2720;52.396;10.064;2023-03-14T02:17:13;3.77;;;1.27;;
5393;SDS011;2720;52.396;10.064;2023-03-14T02:19:46;5.87;;;1.30;;
5393;SDS011;2720;52.396;10.064;2023-03-14T02:22:24;6.97;;;1.33;;
5393;SDS011;2720;52.396;10.064;2023-03-14T02:24:54;2.53;;;1.13;;
5393;SDS011;2720;52.396;10.064;2023-03-14T02:27:27;2.50;;;1.13;;
5393;SDS011;2720;52.396;10.064;2023-03-14T02:29:55;4.20;;;1.03;;
5393;SDS011;2720;52.396;10.064;2023-03-14T02:32:26;1.07;;;0.83;;
5393;SDS011;2720;52.396;10.064;2023-03-14T02:34:57;5.27;;;0.90;;
5393;SDS011;2720;52.396;10.064;2023-03-14T02:37:27;3.10;;;0.80;;
5393;SDS011;2720;52.396;10.064;2023-03-14T02:40:00;2.20;;;0.80;;
5393;SDS011;2720;52.396;10.064;2023-03-14T02:42:30;1.20;;;0.80;;
5393;SDS011;2720;52.396;10.064;2023-03-14T02:44:59;7.23;;;1.20;;
5393;SDS011;2720;52.396;10.064;2023-03-14T02:47:49;2.50;;;1.30;;
5393;SDS011;2720;52.396;10.064;2023-03-14T02:50:19;1.77;;;1.03;;
5393;SDS011;2720;52.396;10.064;2023-03-14T02:52:48;3.43;;;1.43;;
5393;SDS011;2720;52.396;10.064;2023-03-14T02:55:19;4.27;;;1.20;;
5393;SDS011;2720;52.396;10.064;2023-03-14T02:57:48;5.03;;;1.40;;
5393;SDS011;2720;52.396;10.064;2023-03-14T03:00:15;2.80;;;1.03;;
5393;SDS011;2720;52.396;10.064;2023-03-14T03:02:42;6.43;;;1.00;;
5393;SDS011;2720;52.396;10.064;2023-03-14T03:05:09;3.53;;;1.03;;
5393;SDS011;2720;52.396;10.064;2023-03-14T03:07:36;4.23;;;1.00;;
5393;SDS011;2720;52.396;10.064;2023-03-14T03:10:04;6.23;;;2.20;;
5393;SDS011;2720;52.396;10.064;2023-03-14T03:12:31;6.87;;;1.20;;
5393;SDS011;2720;52.396;10.064;2023-03-14T03:15:00;1.70;;;0.70;;
5393;SDS011;2720;52.396;10.064;2023-03-14T03:17:27;2.47;;;1.07;;
5393;SDS011;2720;52.396;10.064;2023-03-14T03:19:54;6.03;;;0.83;;
5393;SDS011;2720;52.396;10.064;2023-03-14T03:22:21;2.63;;;0.90;;
5393;SDS011;2720;52.396;10.064;2023-03-14T03:24:48;4.43;;;1.00;;
5393;SDS011;2720;52.396;10.064;2023-03-14T03:27:15;4.07;;;1.20;;
5393;SDS011;2720;52.396;10.064;2023-03-14T03:29:43;2.53;;;0.97;;
5393;SDS011;2720;52.396;10.064;2023-03-14T03:32:11;4.80;;;2.17;;
5393;SDS011;2720;52.396;10.064;2023-03-14T03:34:38;4.73;;;1.00;;
5393;SDS011;2720;52.396;10.064;2023-03-14T03:37:05;2.60;;;0.93;;
5393;SDS011;2720;52.396;10.064;2023-03-14T03:39:32;5.20;;;1.67;;
5393;SDS011;2720;52.396;10.064;2023-03-14T03:41:59;2.60;;;1.13;;
5393;SDS011;2720;52.396;10.064;2023-03-14T03:44:25;2.13;;;0.97;;
5393;SDS011;2720;52.396;10.064;2023-03-14T03:46:52;2.63;;;0.63;;
5393;SDS011;2720;52.396;10.064;2023-03-14T03:49:21;5.93;;;0.90;;
5393;SDS011;2720;52.396;10.064;2023-03-14T03:51:48;5.27;;;0.80;;
5393;SDS011;2720;52.396;10.064;2023-03-14T03:54:15;1.03;;;0.70;;
5393;SDS011;2720;52.396;10.064;2023-03-14T03:56:41;4.03;;;0.90;;
5393;SDS011;2720;52.396;10.064;2023-03-14T03:59:08;1.37;;;0.87;;
5393;SDS011;2720;52.396;10.064;2023-03-14T04:01:35;6.03;;;0.70;;
5393;SDS011;2720;52.396;10.064;2023-03-14T04:04:02;10.03;;;1.23;;
5393;SDS011;2720;52.396;10.064;2023-03-14T04:06:31;6.73;;;0.77;;
5393;SDS011;2720;52.396;10.064;2023-03-14T04:08:58;6.83;;;1.10;;
5393;SDS011;2720;52.396;10.064;2023-03-14T04:11:25;4.70;;;1.60;;
5393;SDS011;2720;52.396;10.064;2023-03-14T04:13:52;4.33;;;0.53;;
5393;SDS011;2720;52.396;10.064;2023-03-14T04:16:19;4.57;;;0.93;;
5393;SDS011;2720;52.396;10.064;2023-03-14T04:18:48;3.80;;;1.13;;
5393;SDS011;2720;52.396;10.064;2023-03-14T04:21:15;5.93;;;1.20;;
5393;SDS011;2720;52.396;10.064;2023-03-14T04:23:44;3.60;;;1.13;;
5393;SDS011;2720;52.396;10.064;2023-03-14T04:26:11;5.00;;;0.60;;
5393;SDS011;2720;52.396;10.064;2023-03-14T04:28:38;6.23;;;0.90;;
5393;SDS011;2720;52.396;10.064;2023-03-14T04:31:08;11.23;;;1.50;;
5393;SDS011;2720;52.396;10.064;2023-03-14T04:33:36;3.20;;;1.07;;
5393;SDS011;2720;52.396;10.064;2023-03-14T04:36:03;1.93;;;0.80;;
5393;SDS011;2720;52.396;10.064;2023-03-14T04:38:31;2.00;;;0.80;;
5393;SDS011;2720;52.396;10.064;2023-03-14T04:40:59;0.40;;;0.40;;
5393;SDS011;2720;52.396;10.064;2023-03-14T04:43:26;4.73;;;0.53;;
5393;SDS011;2720;52.396;10.064;2023-03-14T04:45:53;2.67;;;0.43;;
5393;SDS011;2720;52.396;10.064;2023-03-14T04:48:21;1.53;;;0.40;;
5393;SDS011;2720;52.396;10.064;2023-03-14T04:50:48;4.40;;;0.47;;
5393;SDS011;2720;52.396;10.064;2023-03-14T04:53:15;1.13;;;0.57;;
5393;SDS011;2720;52.396;10.064;2023-03-14T04:55:47;0.90;;;0.47;;
5393;SDS011;2720;52.396;10.064;2023-03-14T04:58:16;2.87;;;0.80;;
5393;SDS011;2720;52.396;10.064;2023-03-14T05:00:43;0.47;;;0.47;;
5393;SDS011;2720;52.396;10.064;2023-03-14T05:03:09;1.20;;;0.57;;
5393;SDS011;2720;52.396;10.064;2023-03-14T05:05:36;2.73;;;0.43;;
5393;SDS011;2720;52.396;10.064;2023-03-14T05:08:03;1.47;;;0.40;;
5393;SDS011;2720;52.396;10.064;2023-03-14T05:10:30;0.40;;;0.40;;
5393;SDS011;2720;52.396;10.064;2023-03-14T05:12:57;4.23;;;0.73;;
5393;SDS011;2720;52.396;10.064;2023-03-14T05:15:26;1.00;;;0.40;;
5393;SDS011;2720;52.396;10.064;2023-03-14T05:17:52;2.93;;;0.67;;
5393;SDS011;2720;52.396;10.064;2023-03-14T05:20:20;1.13;;;0.20;;
5393;SDS011;2720;52.396;10.064;2023-03-14T05:22:47;1.83;;;0.20;;
5393;SDS011;2720;52.396;10.064;2023-03-14T05:25:14;7.10;;;1.70;;
5393;SDS011;2720;52.396;10.064;2023-03-14T05:27:41;1.00;;;0.63;;
5393;SDS011;2720;52.396;10.064;2023-03-14T05:30:08;0.80;;;0.30;;
5393;SDS011;2720;52.396;10.064;2023-03-14T05:32:37;2.30;;;0.37;;
5393;SDS011;2720;52.396;10.064;2023-03-14T05:35:05;2.97;;;0.50;;
5393;SDS011;2720;52.396;10.064;2023-03-14T05:37:32;6.40;;;0.40;;
5393;SDS011;2720;52.396;10.064;2023-03-14T05:39:59;2.67;;;0.60;;
5393;SDS011;2720;52.396;10.064;2023-03-14T05:42:26;0.80;;;0.80;;
5393;SDS011;2720;52.396;10.064;2023-03-14T05:44:53;1.17;;;0.80;;
5393;SDS011;2720;52.396;10.064;2023-03-14T05:47:20;1.23;;;0.57;;
5393;SDS011;2720;52.396;10.064;2023-03-14T05:49:48;2.60;;;0.70;;
5393;SDS011;2720;52.396;10.064;2023-03-14T05:52:16;1.23;;;0.90;;
5393;SDS011;2720;52.396;10.064;2023-03-14T05:54:43;6.33;;;1.00;;
5393;SDS011;2720;52.396;10.064;2023-03-14T05:57:10;5.03;;;0.83;;
5393;SDS011;2720;52.396;10.064;2023-03-14T05:59:37;6.20;;;0.77;;
5393;SDS011;2720;52.396;10.064;2023-03-14T06:02:04;3.13;;;0.77;;
5393;SDS011;2720;52.396;10.064;2023-03-14T06:04:31;10.27;;;1.30;;
5393;SDS011;2720;52.396;10.064;2023-03-14T06:06:59;5.70;;;0.90;;
5393;SDS011;2720;52.396;10.064;2023-03-14T06:09:26;4.30;;;1.23;;
5393;SDS011;2720;52.396;10.064;2023-03-14T06:11:53;7.33;;;1.40;;
5393;SDS011;2720;52.396;10.064;2023-03-14T06:14:20;2.60;;;0.83;;
5393;SDS011;2720;52.396;10.064;2023-03-14T06:16:47;1.40;;;0.73;;
5393;SDS011;2720;52.396;10.064;2023-03-14T06:19:15;4.20;;;0.97;;
5393;SDS011;2720;52.396;10.064;2023-03-14T06:21:42;6.43;;;1.03;;
5393;SDS011;2720;52.396;10.064;2023-03-14T06:24:11;5.43;;;0.70;;
5393;SDS011;2720;52.396;10.064;2023-03-14T06:26:38;2.63;;;1.17;;
5393;SDS011;2720;52.396;10.064;2023-03-14T06:29:04;1.77;;;0.73;;
5393;SDS011;2720;52.396;10.064;2023-03-14T06:31:32;5.73;;;2.27;;
5393;SDS011;2720;52.396;10.064;2023-03-14T06:33:59;10.63;;;0.80;;
5393;SDS011;2720;52.396;10.064;2023-03-14T06:36:27;0.93;;;0.80;;
5393;SDS011;2720;52.396;10.064;2023-03-14T06:38:54;3.30;;;0.77;;
5393;SDS011;2720;52.396;10.064;2023-03-14T06:41:22;7.47;;;2.27;;
5393;SDS011;2720;52.396;10.064;2023-03-14T06:43:51;4.50;;;1.40;;
5393;SDS011;2720;52.396;10.064;2023-03-14T06:46:18;2.10;;;1.50;;
5393;SDS011;2720;52.396;10.064;2023-03-14T06:48:45;4.07;;;1.07;;
5393;SDS011;2720;52.396;10.064;2023-03-14T06:51:12;1.33;;;0.83;;
5393;SDS011;2720;52.396;10.064;2023-03-14T06:53:39;1.80;;;1.27;;
5393;SDS011;2720;52.396;10.064;2023-03-14T06:56:07;11.30;;;1.60;;
5393;SDS011;2720;52.396;10.064;2023-03-14T06:58:36;4.53;;;2.17;;
5393;SDS011;2720;52.396;10.064;2023-03-14T07:01:03;7.37;;;2.37;;
5393;SDS011;2720;52.396;10.064;2023-03-14T07:03:30;3.00;;;1.50;;
5393;SDS011;2720;52.396;10.064;2023-03-14T07:05:57;5.10;;;1.33;;
5393;SDS011;2720;52.396;10.064;2023-03-14T07:08:24;2.43;;;0.93;;
5393;SDS011;2720;52.396;10.064;2023-03-14T07:10:51;4.17;;;1.13;;
5393;SDS011;2720;52.396;10.064;2023-03-14T07:13:18;5.70;;;1.70;;
5393;SDS011;2720;52.396;10.064;2023-03-14T07:15:47;2.10;;;1.10;;
5393;SDS011;2720;52.396;10.064;2023-03-14T07:18:13;5.60;;;1.13;;
5393;SDS011;2720;52.396;10.064;2023-03-14T07:20:40;1.63;;;0.90;;
5393;SDS011;2720;52.396;10.064;2023-03-14T07:23:07;5.50;;;1.13;;
5393;SDS011;2720;52.396;10.064;2023-03-14T07:25:34;3.73;;;0.80;;
5393;SDS011;2720;52.396;10.064;2023-03-14T07:28:01;4.57;;;1.57;;
5393;SDS011;2720;52.396;10.064;2023-03-14T07:30:28;2.87;;;0.70;;
5393;SDS011;2720;52.396;10.064;2023-03-14T07:32:56;1.17;;;0.60;;
5393;SDS011;2720;52.396;10.064;2023-03-14T07:35:23;1.27;;;0.60;;
5393;SDS011;2720;52.396;10.064;2023-03-14T07:37:50;3.80;;;1.13;;
5393;SDS011;2720;52.396;10.064;2023-03-14T07:40:17;9.17;;;0.60;;
5393;SDS011;2720;52.396;10.064;2023-03-14T07:42:44;3.03;;;0.97;;
5393;SDS011;2720;52.396;10.064;2023-03-14T07:45:11;3.80;;;0.67;;
5393;SDS011;2720;52.396;10.064;2023-03-14T07:47:38;2.10;;;0.80;;
5393;SDS011;2720;52.396;10.064;2023-03-14T07:50:07;1.93;;;0.80;;
5393;SDS011;2720;52.396;10.064;2023-03-14T07:52:35;0.50;;;0.40;;
5393;SDS011;2720;52.396;10.064;2023-03-14T07:55:02;3.97;;;1.17;;
5393;SDS011;2720;52.396;10.064;2023-03-14T07:57:30;3.60;;;1.53;;
5393;SDS011;2720;52.396;10.064;2023-03-14T07:59:57;0.83;;;0.50;;
5393;SDS011;2720;52.396;10.064;2023-03-14T08:02:24;2.97;;;1.07;;
5393;SDS011;2720;52.396;10.064;2023-03-14T08:04:51;2.50;;;1.10;;
5393;SDS011;2720;52.396;10.064;2023-03-14T08:07:19;0.80;;;0.70;;
5393;SDS011;2720;52.396;10.064;2023-03-14T08:09:46;4.17;;;0.93;;
5393;SDS011;2720;52.396;10.064;2023-03-14T08:12:13;3.07;;;0.97;;
5393;SDS011;2720;52.396;10.064;2023-03-14T08:14:41;5.17;;;0.73;;
5393;SDS011;2720;52.396;10.064;2023-03-14T08:17:08;4.00;;;1.10;;
5393;SDS011;2720;52.396;10.064;2023-03-14T08:19:34;6.90;;;1.40;;
5393;SDS011;2720;52.396;10.064;2023-03-14T08:22:01;1.90;;;0.70;;
5393;SDS011;2720;52.396;10.064;2023-03-14T08:24:30;0.70;;;0.60;;
5393;SDS011;2720;52.396;10.064;2023-03-14T08:26:57;7.83;;;1.20;;
5393;SDS011;2720;52.396;10.064;2023-03-14T08:29:24;0.80;;;0.60;;
5393;SDS011;2720;52.396;10.064;2023-03-14T08:31:51;2.57;;;0.87;;
5393;SDS011;2720;52.396;10.064;2023-03-14T08:34:19;2.97;;;0.87;;
5393;SDS011;2720;52.396;10.064;2023-03-14T08:36:46;7.47;;;0.90;;
5393;SDS011;2720;52.396;10.064;2023-03-14T08:39:13;1.17;;;0.53;;
5393;SDS011;2720;52.396;10.064;2023-03-14T08:41:42;2.60;;;0.80;;
5393;SDS011;2720;52.396;10.064;2023-03-14T08:44:09;1.93;;;0.63;;
5393;SDS011;2720;52.396;10.064;2023-03-14T08:46:37;1.40;;;0.70;;
5393;SDS011;2720;52.396;10.064;2023-03-14T08:49:04;2.70;;;1.00;;
5393;SDS011;2720;52.396;10.064;2023-03-14T08:51:31;7.03;;;0.70;;
5393;SDS011;2720;52.396;10.064;2023-03-14T08:53:58;4.73;;;0.80;;
5393;SDS011;2720;52.396;10.064;2023-03-14T08:56:25;6.73;;;0.80;;
5393;SDS011;2720;52.396;10.064;2023-03-14T08:58:53;2.10;;;1.43;;
5393;SDS011;2720;52.396;10.064;2023-03-14T09:01:20;0.73;;;0.50;;
5393;SDS011;2720;52.396;10.064;2023-03-14T09:03:49;5.43;;;0.83;;
5393;SDS011;2720;52.396;10.064;2023-03-14T09:06:16;2.10;;;0.60;;
5393;SDS011;2720;52.396;10.064;2023-03-14T09:08:44;3.87;;;0.67;;
5393;SDS011;2720;52.396;10.064;2023-03-14T09:11:11;3.20;;;0.50;;
5393;SDS011;2720;52.396;10.064;2023-03-14T09:13:38;0.93;;;0.40;;
5393;SDS011;2720;52.396;10.064;2023-03-14T09:16:07;2.50;;;1.03;;
5393;SDS011;2720;52.396;10.064;2023-03-14T09:18:35;4.50;;;0.70;;
5393;SDS011;2720;52.396;10.064;2023-03-14T09:21:02;7.07;;;1.80;;
5393;SDS011;2720;52.396;10.064;2023-03-14T09:23:29;0.70;;;0.40;;
5393;SDS011;2720;52.396;10.064;2023-03-14T09:25:56;3.70;;;0.57;;
5393;SDS011;2720;52.396;10.064;2023-03-14T09:28:23;9.53;;;0.93;;
5393;SDS011;2720;52.396;10.064;2023-03-14T09:30:51;2.60;;;2.40;;
5393;SDS011;2720;52.396;10.064;2023-03-14T09:33:20;0.60;;;0.53;;
5393;SDS011;2720;52.396;10.064;2023-03-14T09:35:48;2.93;;;0.60;;
5393;SDS011;2720;52.396;10.064;2023-03-14T09:38:15;2.37;;;0.53;;
5393;SDS011;2720;52.396;10.064;2023-03-14T09:40:42;1.57;;;0.53;;
5393;SDS011;2720;52.396;10.064;2023-03-14T09:43:09;6.90;;;0.80;;
5393;SDS011;2720;52.396;10.064;2023-03-14T09:45:39;6.77;;;0.80;;
5393;SDS011;2720;52.396;10.064;2023-03-14T09:48:11;1.90;;;0.70;;
5393;SDS011;2720;52.396;10.064;2023-03-14T09:50:43;0.70;;;0.47;;
5393;SDS011;2720;52.396;10.064;2023-03-14T09:53:15;2.00;;;0.97;;
5393;SDS011;2720;52.396;10.064;2023-03-14T09:55:44;2.70;;;0.50;;
5393;SDS011;2720;52.396;10.064;2023-03-14T09:58:14;0.60;;;0.40;;
5393;SDS011;2720;52.396;10.064;2023-03-14T10:00:43;1.17;;;0.40;;
5393;SDS011;2720;52.396;10.064;2023-03-14T10:03:21;0.80;;;0.53;;
5393;SDS011;2720;52.396;10.064;2023-03-14T10:05:53;8.23;;;0.90;;
5393;SDS011;2720;52.396;10.064;2023-03-14T10:08:22;1.00;;;0.63;;
5393;SDS011;2720;52.396;10.064;2023-03-14T10:10:49;1.20;;;0.70;;
5393;SDS011;2720;52.396;10.064;2023-03-14T10:13:16;7.23;;;0.60;;
5393;SDS011;2720;52.396;10.064;2023-03-14T10:15:47;1.10;;;0.47;;
5393;SDS011;2720;52.396;10.064;2023-03-14T10:18:17;1.73;;;0.40;;
5393;SDS011;2720;52.396;10.064;2023-03-14T10:20:44;3.37;;;0.40;;
5393;SDS011;2720;52.396;10.064;2023-03-14T10:23:22;1.33;;;0.37;;
5393;SDS011;2720;52.396;10.064;2023-03-14T10:25:59;0.57;;;0.50;;
5393;SDS011;2720;52.396;10.064;2023-03-14T10:28:31;1.27;;;0.80;;
5393;SDS011;2720;52.396;10.064;2023-03-14T10:30:59;2.70;;;0.60;;
5393;SDS011;2720;52.396;10.064;2023-03-14T10:33:27;0.87;;;0.40;;
5393;SDS011;2720;52.396;10.064;2023-03-14T10:35:55;0.77;;;0.60;;
5393;SDS011;2720;52.396;10.064;2023-03-14T10:38:25;1.70;;;0.97;;
5393;SDS011;2720;52.396;10.064;2023-03-14T10:40:54;3.33;;;0.70;;
5393;SDS011;2720;52.396;10.064;2023-03-14T10:43:24;1.13;;;0.77;;
5393;SDS011;2720;52.396;10.064;2023-03-14T10:45:54;2.23;;;0.50;;
5393;SDS011;2720;52.396;10.064;2023-03-14T10:48:24;0.63;;;0.50;;
5393;SDS011;2720;52.396;10.064;2023-03-14T10:50:56;0.60;;;0.60;;
5393;SDS011;2720;52.396;10.064;2023-03-14T10:53:29;0.70;;;0.33;;
5393;SDS011;2720;52.396;10.064;2023-03-14T10:56:02;2.03;;;0.70;;
5393;SDS011;2720;52.396;10.064;2023-03-14T10:58:31;0.60;;;0.60;;
5393;SDS011;2720;52.396;10.064;2023-03-14T11:01:09;2.60;;;0.50;;
5393;SDS011;2720;52.396;10.064;2023-03-14T11:03:48;0.40;;;0.40;;
5393;SDS011;2720;52.396;10.064;2023-03-14T11:06:20;0.93;;;0.60;;
5393;SDS011;2720;52.396;10.064;2023-03-14T11:08:56;0.53;;;0.50;;
5393;SDS011;2720;52.396;10.064;2023-03-14T11:11:30;1.97;;;1.00;;
5393;SDS011;2720;52.396;10.064;2023-03-14T11:14:01;2.10;;;1.00;;
5393;SDS011;2720;52.396;10.064;2023-03-14T11:16:39;1.57;;;0.87;;
5393;SDS011;2720;52.396;10.064;2023-03-14T11:19:28;0.83;;;0.80;;
5393;SDS011;2720;52.396;10.064;2023-03-14T11:22:05;1.80;;;1.23;;
5393;SDS011;2720;52.396;10.064;2023-03-14T11:27:45;2.60;;;0.50;;
5393;SDS011;2720;52.396;10.064;2023-03-14T11:30:21;1.03;;;0.60;;
5393;SDS011;2720;52.396;10.064;2023-03-14T11:32:55;0.70;;;0.70;;
5393;SDS011;2720;52.396;10.064;2023-03-14T11:35:28;2.00;;;0.70;;
5393;SDS011;2720;52.396;10.064;2023-03-14T11:38:02;0.57;;;0.57;;
5393;SDS011;2720;52.396;10.064;2023-03-14T11:40:38;1.33;;;1.13;;
5393;SDS011;2720;52.396;10.064;2023-03-14T11:43:09;0.60;;;0.30;;
5393;SDS011;2720;52.396;10.064;2023-03-14T11:45:41;4.47;;;0.80;;
5393;SDS011;2720;52.396;10.064;2023-03-14T11:48:14;0.40;;;0.37;;
5393;SDS011;2720;52.396;10.064;2023-03-14T11:50:47;2.37;;;0.40;;
5393;SDS011;2720;52.396;10.064;2023-03-14T11:53:19;1.37;;;0.43;;
5393;SDS011;2720;52.396;10.064;2023-03-14T11:55:48;0.47;;;0.47;;
5393;SDS011;2720;52.396;10.064;2023-03-14T11:58:19;2.17;;;0.40;;
5393;SDS011;2720;52.396;10.064;2023-03-14T12:00:49;1.57;;;0.63;;
5393;SDS011;2720;52.396;10.064;2023-03-14T12:03:21;0.40;;;0.40;;
5393;SDS011;2720;52.396;10.064;2023-03-14T12:05:58;2.87;;;0.50;;
5393;SDS011;2720;52.396;10.064;2023-03-14T12:08:39;0.30;;;0.30;;
5393;SDS011;2720;52.396;10.064;2023-03-14T12:11:12;0.63;;;0.43;;
5393;SDS011;2720;52.396;10.064;2023-03-14T12:13:46;2.10;;;0.70;;
5393;SDS011;2720;52.396;10.064;2023-03-14T12:16:22;1.80;;;0.20;;
5393;SDS011;2720;52.396;10.064;2023-03-14T12:21:58;1.07;;;0.77;;
5393;SDS011;2720;52.396;10.064;2023-03-14T12:24:33;2.93;;;0.30;;
5393;SDS011;2720;52.396;10.064;2023-03-14T12:27:02;0.30;;;0.23;;
5393;SDS011;2720;52.396;10.064;2023-03-14T12:29:33;0.93;;;0.30;;
5393;SDS011;2720;52.396;10.064;2023-03-14T12:32:25;0.30;;;0.30;;
5393;SDS011;2720;52.396;10.064;2023-03-14T12:34:52;0.30;;;0.20;;
5393;SDS011;2720;52.396;10.064;2023-03-14T12:37:22;0.30;;;0.20;;
5393;SDS011;2720;52.396;10.064;2023-03-14T12:40:01;0.30;;;0.23;;
5393;SDS011;2720;52.396;10.064;2023-03-14T12:42:38;1.03;;;0.30;;
5393;SDS011;2720;52.396;10.064;2023-03-14T12:45:21;0.70;;;0.30;;
5393;SDS011;2720;52.396;10.064;2023-03-14T12:47:53;0.70;;;0.30;;
5393;SDS011;2720;52.396;10.064;2023-03-14T12:50:33;0.40;;;0.30;;
5393;SDS011;2720;52.396;10.064;2023-03-14T12:55:56;0.97;;;0.47;;
5393;SDS011;2720;52.396;10.064;2023-03-14T12:58:30;0.30;;;0.30;;
5393;SDS011;2720;52.396;10.064;2023-03-14T13:01:03;0.30;;;0.30;;
5393;SDS011;2720;52.396;10.064;2023-03-14T13:03:39;0.77;;;0.20;;
5393;SDS011;2720;52.396;10.064;2023-03-14T13:06:11;0.30;;;0.27;;
5393;SDS011;2720;52.396;10.064;2023-03-14T13:08:39;1.60;;;0.93;;
5393;SDS011;2720;52.396;10.064;2023-03-14T13:11:10;4.30;;;0.60;;
5393;SDS011;2720;52.396;10.064;2023-03-14T13:13:42;2.87;;;0.53;;
5393;SDS011;2720;52.396;10.064;2023-03-14T13:16:14;2.23;;;1.27;;
5393;SDS011;2720;52.396;10.064;2023-03-14T13:18:44;5.27;;;0.83;;
5393;SDS011;2720;52.396;10.064;2023-03-14T13:21:13;5.60;;;0.40;;
5393;SDS011;2720;52.396;10.064;2023-03-14T13:23:54;3.70;;;0.73;;
5393;SDS011;2720;52.396;10.064;2023-03-14T13:26:24;4.20;;;0.63;;
5393;SDS011;2720;52.396;10.064;2023-03-14T13:28:57;8.70;;;1.07;;
5393;SDS011;2720;52.396;10.064;2023-03-14T13:31:26;3.03;;;0.70;;
5393;SDS011;2720;52.396;10.064;2023-03-14T13:33:58;4.63;;;0.80;;
5393;SDS011;2720;52.396;10.064;2023-03-14T13:36:26;2.10;;;0.40;;
5393;SDS011;2720;52.396;10.064;2023-03-14T13:38:57;3.70;;;0.87;;
5393;SDS011;2720;52.396;10.064;2023-03-14T13:41:26;17.20;;;0.97;;
5393;SDS011;2720;52.396;10.064;2023-03-14T13:43:56;3.30;;;0.67;;
5393;SDS011;2720;52.396;10.064;2023-03-14T13:46:30;3.10;;;0.87;;
5393;SDS011;2720;52.396;10.064;2023-03-14T13:49:01;8.60;;;0.93;;
5393;SDS011;2720;52.396;10.064;2023-03-14T13:51:29;7.00;;;1.37;;
5393;SDS011;2720;52.396;10.064;2023-03-14T13:53:59;5.83;;;1.10;;
5393;SDS011;2720;52.396;10.064;2023-03-14T13:56:28;5.20;;;1.90;;
5393;SDS011;2720;52.396;10.064;2023-03-14T13:58:57;8.83;;;1.30;;
5393;SDS011;2720;52.396;10.064;2023-03-14T14:01:25;21.10;;;2.27;;
5393;SDS011;2720;52.396;10.064;2023-03-14T14:03:55;10.50;;;1.67;;
5393;SDS011;2720;52.396;10.064;2023-03-14T14:06:28;4.20;;;0.70;;
5393;SDS011;2720;52.396;10.064;2023-03-14T14:08:58;12.60;;;1.50;;
5393;SDS011;2720;52.396;10.064;2023-03-14T14:11:38;9.13;;;1.57;;
5393;SDS011;2720;52.396;10.064;2023-03-14T14:14:09;3.40;;;1.03;;
5393;SDS011;2720;52.396;10.064;2023-03-14T14:16:40;17.07;;;1.60;;
5393;SDS011;2720;52.396;10.064;2023-03-14T14:19:11;19.10;;;1.10;;
5393;SDS011;2720;52.396;10.064;2023-03-14T14:21:40;12.43;;;2.10;;
5393;SDS011;2720;52.396;10.064;2023-03-14T14:24:07;10.50;;;1.40;;
5393;SDS011;2720;52.396;10.064;2023-03-14T14:26:36;17.03;;;2.87;;
5393;SDS011;2720;52.396;10.064;2023-03-14T14:29:26;7.93;;;1.50;;
5393;SDS011;2720;52.396;10.064;2023-03-14T14:32:03;10.00;;;1.57;;
5393;SDS011;2720;52.396;10.064;2023-03-14T14:34:40;9.30;;;2.43;;
5393;SDS011;2720;52.396;10.064;2023-03-14T14:37:20;6.90;;;1.60;;
5393;SDS011;2720;52.396;10.064;2023-03-14T14:39:49;13.10;;;1.90;;
5393;SDS011;2720;52.396;10.064;2023-03-14T14:42:18;9.43;;;1.90;;
5393;SDS011;2720;52.396;10.064;2023-03-14T14:44:47;18.27;;;2.57;;
5393;SDS011;2720;52.396;10.064;2023-03-14T14:47:18;13.23;;;2.20;;
5393;SDS011;2720;52.396;10.064;2023-03-14T14:49:48;23.37;;;2.70;;
5393;SDS011;2720;52.396;10.064;2023-03-14T14:52:17;35.37;;;5.40;;
5393;SDS011;2720;52.396;10.064;2023-03-14T14:54:46;14.00;;;3.20;;
5393;SDS011;2720;52.396;10.064;2023-03-14T14:57:20;19.00;;;2.43;;
5393;SDS011;2720;52.396;10.064;2023-03-14T14:59:49;13.63;;;3.40;;
5393;SDS011;2720;52.396;10.064;2023-03-14T15:02:29;7.33;;;2.20;;
5393;SDS011;2720;52.396;10.064;2023-03-14T15:05:00;7.20;;;1.97;;
5393;SDS011;2720;52.396;10.064;2023-03-14T15:07:27;20.43;;;2.40;;
5393;SDS011;2720;52.396;10.064;2023-03-14T15:09:54;26.37;;;3.00;;
5393;SDS011;2720;52.396;10.064;2023-03-14T15:12:21;8.93;;;1.70;;
5393;SDS011;2720;52.396;10.064;2023-03-14T15:14:49;9.30;;;1.20;;
5393;SDS011;2720;52.396;10.064;2023-03-14T15:17:16;12.10;;;1.20;;
5393;SDS011;2720;52.396;10.064;2023-03-14T15:19:43;8.90;;;1.83;;
5393;SDS011;2720;52.396;10.064;2023-03-14T15:22:12;13.07;;;1.87;;